Time;durP1;ratioP1;P1;durP2;ratioP2;P2;SDS_P1;SDS_P2;PMS_P1;PMS_P2;Temp;Humidity;BMP_temperature;BMP_pressure;BME280_temperature;BME280_humidity;BME280_pressure;Samples;Min_cycle;Max_cycle;Signal;HPM_P1;HPM_P2
2023/08/18 00:00:16;;;;;;;5.20;3.40;;;;;;;29.48;38.88;100914.64;103542;1286;61388;-80
2023/08/18 00:02:41;;;;;;;5.60;3.90;;;;;;;29.48;38.94;100914.13;103597;1284;61356;-80
2023/08/18 00:05:07;;;;;;;5.70;3.80;;;;;;;29.49;38.75;100912.10;103493;1285;61842;-80
2023/08/18 00:07:33;;;;;;;5.40;3.70;;;;;;;29.47;38.88;100912.56;103479;1290;65889;-80
2023/08/18 00:09:59;;;;;;;5.30;3.50;;;;;;;29.48;38.90;100913.27;103496;1287;61474;-80
2023/08/18 00:12:25;;;;;;;7.50;4.00;;;;;;;29.47;38.95;100915.11;103492;1284;61318;-80
2023/08/18 00:14:51;;;;;;;5.00;3.80;;;;;;;29.48;39.01;100917.04;103650;1285;62026;-80
2023/08/18 00:17:17;;;;;;;4.80;3.50;;;;;;;29.47;38.90;100916.02;103599;1287;61317;-80
2023/08/18 00:19:44;;;;;;;6.00;3.80;;;;;;;29.47;38.91;100913.31;103542;1290;61459;-80
2023/08/18 00:22:09;;;;;;;5.50;3.80;;;;;;;29.48;38.94;100915.25;103559;1285;61955;-80
2023/08/18 00:24:35;;;;;;;5.20;3.70;;;;;;;29.47;38.89;100915.14;103550;1290;61375;-80
2023/08/18 00:27:01;;;;;;;6.30;3.90;;;;;;;29.48;39.07;100918.31;103596;1286;61394;-80
2023/08/18 00:29:26;;;;;;;4.80;3.70;;;;;;;29.47;39.02;100914.94;103477;1291;61424;-80
2023/08/18 00:31:52;;;;;;;5.80;3.90;;;;;;;29.48;38.88;100919.76;103573;1289;61358;-80
2023/08/18 00:34:17;;;;;;;5.10;3.80;;;;;;;29.47;38.93;100916.41;103545;1288;61384;-80
2023/08/18 00:36:43;;;;;;;5.30;3.50;;;;;;;29.47;38.87;100917.14;103537;1289;61487;-80
2023/08/18 00:39:08;;;;;;;4.40;3.30;;;;;;;29.47;39.02;100915.38;103531;1287;61436;-80
2023/08/18 00:41:34;;;;;;;4.80;3.70;;;;;;;29.46;39.02;100914.48;103514;1289;61294;-80
2023/08/18 00:43:59;;;;;;;4.70;3.50;;;;;;;29.47;39.12;100912.84;103445;1291;61382;-80
2023/08/18 00:46:25;;;;;;;5.60;4.00;;;;;;;29.46;38.98;100914.70;103525;1291;61408;-80
2023/08/18 00:48:50;;;;;;;5.50;3.70;;;;;;;29.46;38.82;100912.16;103430;1290;62680;-80
2023/08/18 00:51:16;;;;;;;4.90;3.80;;;;;;;29.46;38.85;100913.61;103595;1286;61392;-81
2023/08/18 00:53:41;;;;;;;4.80;3.50;;;;;;;29.46;38.98;100911.08;103533;1291;65911;-80
2023/08/18 00:56:07;;;;;;;6.70;3.80;;;;;;;29.46;39.10;100911.84;103303;1294;63005;-80
2023/08/18 00:58:34;;;;;;;4.80;3.40;;;;;;;29.45;39.05;100914.05;103638;1287;61296;-80
2023/08/18 01:01:01;;;;;;;6.30;3.90;;;;;;;29.45;39.13;100917.67;103527;1300;61386;-80
2023/08/18 01:03:26;;;;;;;5.00;3.70;;;;;;;29.46;39.15;100919.45;103470;1289;62049;-80
2023/08/18 01:05:52;;;;;;;6.90;3.70;;;;;;;29.45;39.15;100922.00;103488;1286;61356;-80
2023/08/18 01:08:17;;;;;;;5.70;4.00;;;;;;;29.46;39.21;100921.08;103565;1291;61412;-80
2023/08/18 01:10:56;;;;;;;4.60;4.00;;;;;;;29.45;39.03;100924.58;103508;1292;61381;-80
2023/08/18 01:13:39;;;;;;;5.00;3.90;;;;;;;29.45;39.00;100922.64;103498;1285;63901;-80
2023/08/18 01:16:09;;;;;;;4.70;3.80;;;;;;;29.44;38.96;100922.67;103523;1288;65903;-80
2023/08/18 01:18:37;;;;;;;5.50;3.90;;;;;;;29.45;39.09;100924.81;103520;1286;61394;-80
2023/08/18 01:21:02;;;;;;;5.30;3.80;;;;;;;29.44;39.13;100922.84;103531;1288;61299;-80
2023/08/18 01:23:38;;;;;;;5.70;3.70;;;;;;;29.45;39.15;100922.45;103410;1292;61384;-80
2023/08/18 01:26:04;;;;;;;4.30;3.50;;;;;;;29.44;39.13;100921.41;103627;1285;66912;-80
2023/08/18 01:28:30;;;;;;;5.70;3.80;;;;;;;29.45;39.04;100923.17;103579;1285;61703;-80
2023/08/18 01:30:56;;;;;;;4.30;3.60;;;;;;;29.44;39.19;100925.36;103492;1289;61263;-80
2023/08/18 01:33:32;;;;;;;5.40;3.40;;;;;;;29.45;39.17;100924.45;103452;1293;61394;-80
2023/08/18 01:36:01;;;;;;;5.90;4.10;;;;;;;29.44;39.11;100924.14;103491;1290;66984;-80
2023/08/18 01:38:27;;;;;;;5.60;3.70;;;;;;;29.44;39.21;100926.52;103524;1285;61409;-80
2023/08/18 01:40:52;;;;;;;7.90;4.20;;;;;;;29.45;39.08;100928.08;103465;1292;61695;-80
2023/08/18 01:43:18;;;;;;;5.30;3.80;;;;;;;29.44;38.99;100929.73;103521;1288;61314;-80
2023/08/18 01:45:44;;;;;;;6.20;3.80;;;;;;;29.44;39.07;100928.73;103477;1286;61301;-80
2023/08/18 01:48:10;;;;;;;5.90;3.90;;;;;;;29.44;39.25;100928.31;103444;1290;61377;-80
2023/08/18 01:50:37;;;;;;;6.30;3.80;;;;;;;29.44;38.99;100926.89;103539;1291;61319;-80
2023/08/18 01:53:03;;;;;;;4.60;3.60;;;;;;;29.44;39.08;100926.17;103473;1285;61368;-80
2023/08/18 01:55:29;;;;;;;6.50;4.30;;;;;;;29.44;39.16;100921.79;103595;1288;61341;-80
2023/08/18 01:57:55;;;;;;;5.70;3.90;;;;;;;29.43;39.00;100921.48;103665;1286;61471;-81
2023/08/18 02:00:20;;;;;;;4.70;3.60;;;;;;;29.43;39.35;100924.23;103492;1286;61389;-80
2023/08/18 02:02:46;;;;;;;5.10;3.50;;;;;;;29.44;39.16;100922.52;103590;1289;61382;-80
2023/08/18 02:05:11;;;;;;;4.70;3.60;;;;;;;29.44;39.11;100919.48;103522;1289;61963;-80
2023/08/18 02:07:37;;;;;;;6.20;4.00;;;;;;;29.44;39.23;100917.64;103454;1290;61452;-80
2023/08/18 02:10:02;;;;;;;5.70;4.00;;;;;;;29.43;39.29;100919.64;103568;1290;61314;-80
2023/08/18 02:12:28;;;;;;;5.20;3.70;;;;;;;29.43;39.15;100918.61;103560;1290;61775;-80
2023/08/18 02:14:53;;;;;;;5.00;3.90;;;;;;;29.43;39.23;100921.48;103636;1285;61305;-80
2023/08/18 02:17:19;;;;;;;6.60;3.80;;;;;;;29.43;39.24;100921.14;103420;1292;61414;-80
2023/08/18 02:19:45;;;;;;;4.90;3.50;;;;;;;29.43;39.23;100923.33;103536;1285;61409;-80
2023/08/18 02:22:10;;;;;;;5.80;3.70;;;;;;;29.43;39.18;100923.00;103595;1285;61398;-81
2023/08/18 02:24:36;;;;;;;5.50;3.80;;;;;;;29.43;39.26;100920.84;103526;1290;61389;-80
2023/08/18 02:27:01;;;;;;;5.10;3.80;;;;;;;29.43;39.35;100919.88;103520;1285;61417;-80
2023/08/18 02:29:27;;;;;;;5.00;4.00;;;;;;;29.43;39.16;100916.29;103517;1290;61438;-80
2023/08/18 02:31:53;;;;;;;5.70;3.90;;;;;;;29.42;39.22;100912.36;103672;1290;61888;-80
2023/08/18 02:34:19;;;;;;;4.70;3.40;;;;;;;29.43;39.34;100911.94;103568;1287;61423;-80
2023/08/18 02:36:44;;;;;;;5.00;4.00;;;;;;;29.42;39.30;100906.35;103488;1286;62095;-80
2023/08/18 02:39:10;;;;;;;5.20;3.60;;;;;;;29.41;39.27;100904.06;103544;1290;61347;-80
2023/08/18 02:41:35;;;;;;;5.00;3.70;;;;;;;29.42;39.30;100903.42;103538;1286;61407;-80
2023/08/18 02:44:03;;;;;;;4.80;3.80;;;;;;;29.42;39.31;100901.82;103518;1284;61411;-80
2023/08/18 02:46:29;;;;;;;6.20;3.80;;;;;;;29.41;39.29;100904.48;103588;1286;61376;-80
2023/08/18 02:48:54;;;;;;;4.40;3.60;;;;;;;29.42;39.25;100911.14;103414;1285;61384;-79
2023/08/18 02:51:20;;;;;;;5.20;3.70;;;;;;;29.42;39.42;100910.40;103521;1284;62399;-79
2023/08/18 02:53:48;;;;;;;5.30;4.00;;;;;;;29.42;39.41;100913.10;103540;1290;61321;-80
2023/08/18 02:56:14;;;;;;;5.40;3.90;;;;;;;29.41;39.42;100916.06;103500;1290;65925;-80
2023/08/18 02:58:40;;;;;;;5.80;3.80;;;;;;;29.41;39.41;100915.36;103527;1289;61354;-80
2023/08/18 03:01:06;;;;;;;5.70;4.00;;;;;;;29.41;39.38;100913.01;103499;1291;62944;-80
2023/08/18 03:03:32;;;;;;;5.60;4.00;;;;;;;29.41;39.41;100916.61;103450;1287;61734;-80
2023/08/18 03:06:06;;;;;;;5.20;3.90;;;;;;;29.41;39.25;100920.08;103492;1289;61282;-80
2023/08/18 03:08:32;;;;;;;5.20;4.10;;;;;;;29.41;39.29;100920.62;103548;1286;61277;-80
2023/08/18 03:11:00;;;;;;;6.30;4.00;;;;;;;29.41;39.49;100920.79;103530;1287;61406;-80
2023/08/18 03:13:25;;;;;;;5.40;4.00;;;;;;;29.41;39.49;100919.94;103534;1287;63733;-80
2023/08/18 03:15:51;;;;;;;5.40;4.00;;;;;;;29.41;39.43;100921.41;103490;1290;61593;-80
2023/08/18 03:18:17;;;;;;;6.00;3.90;;;;;;;29.40;39.44;100922.15;103490;1290;61385;-80
2023/08/18 03:20:46;;;;;;;5.80;3.80;;;;;;;29.41;39.36;100922.30;103612;1285;61379;-80
2023/08/18 03:23:15;;;;;;;5.30;3.80;;;;;;;29.40;39.44;100920.89;103597;1289;61269;-80
2023/08/18 03:25:41;;;;;;;5.40;3.90;;;;;;;29.40;39.41;100924.33;103477;1287;65761;-80
2023/08/18 03:28:07;;;;;;;5.40;4.10;;;;;;;29.40;39.30;100921.98;103554;1284;61437;-80
2023/08/18 03:30:39;;;;;;;6.00;3.70;;;;;;;29.40;39.51;100924.35;103539;1289;61304;-80
2023/08/18 03:33:05;;;;;;;5.30;4.10;;;;;;;29.40;39.46;100924.87;103486;1286;63884;-80
2023/08/18 03:35:32;;;;;;;5.70;3.90;;;;;;;29.40;39.47;100921.80;103602;1290;62538;-80
2023/08/18 03:37:59;;;;;;;6.00;4.20;;;;;;;29.40;39.52;100924.87;103498;1284;61663;-80
2023/08/18 03:40:25;;;;;;;6.20;4.00;;;;;;;29.41;39.46;100925.05;103593;1287;61955;-80
2023/08/18 03:42:51;;;;;;;6.30;4.10;;;;;;;29.40;39.37;100923.78;103353;1286;63788;-80
2023/08/18 03:45:16;;;;;;;5.00;3.80;;;;;;;29.41;39.52;100922.32;103543;1288;61461;-80
2023/08/18 03:47:42;;;;;;;4.90;4.00;;;;;;;29.40;39.65;100930.16;103496;1288;61402;-81
2023/08/18 03:50:08;;;;;;;6.40;3.90;;;;;;;29.40;39.49;100934.11;103551;1290;61898;-81
2023/08/18 03:52:34;;;;;;;5.00;3.90;;;;;;;29.41;39.54;100935.20;103572;1289;61392;-81
2023/08/18 03:54:59;;;;;;;5.50;3.90;;;;;;;29.41;39.52;100937.89;103529;1285;61477;-81
2023/08/18 03:57:25;;;;;;;5.00;4.10;;;;;;;29.41;39.54;100940.23;103352;1291;62653;-80
2023/08/18 03:59:53;;;;;;;5.40;3.70;;;;;;;29.41;39.59;100936.99;103584;1287;61378;-81
2023/08/18 04:02:18;;;;;;;5.80;3.90;;;;;;;29.40;39.44;100940.63;103527;1286;61273;-81
2023/08/18 04:04:45;;;;;;;5.90;4.30;;;;;;;29.41;39.57;100944.79;103479;1285;61390;-81
2023/08/18 04:07:11;;;;;;;5.50;3.90;;;;;;;29.41;39.58;100944.76;103514;1285;61390;-80
2023/08/18 04:09:37;;;;;;;5.10;3.80;;;;;;;29.41;39.53;100946.96;103622;1285;61437;-81
2023/08/18 04:12:02;;;;;;;5.30;3.80;;;;;;;29.41;39.40;100949.64;103558;1285;61400;-81
2023/08/18 04:14:28;;;;;;;5.40;3.70;;;;;;;29.41;39.39;100950.39;103557;1289;62501;-81
2023/08/18 04:16:54;;;;;;;4.80;3.90;;;;;;;29.40;39.45;100950.22;103359;1284;61411;-80
2023/08/18 04:19:19;;;;;;;5.20;3.90;;;;;;;29.41;39.41;100952.19;103457;1285;65680;-80
2023/08/18 04:21:45;;;;;;;5.00;3.80;;;;;;;29.41;39.52;100954.20;103327;1287;61462;-81
2023/08/18 04:24:10;;;;;;;5.80;4.00;;;;;;;29.41;39.50;100954.38;103566;1284;61322;-81
2023/08/18 04:26:37;;;;;;;5.90;4.10;;;;;;;29.41;39.62;100956.85;103620;1284;61432;-80
2023/08/18 04:29:03;;;;;;;6.60;4.30;;;;;;;29.41;39.45;100954.17;103326;1285;61301;-81
2023/08/18 04:31:29;;;;;;;6.20;4.10;;;;;;;29.41;39.46;100959.47;103574;1284;61414;-80
2023/08/18 04:33:54;;;;;;;6.80;4.10;;;;;;;29.41;39.35;100962.16;103551;1286;61309;-81
2023/08/18 04:36:20;;;;;;;5.60;4.00;;;;;;;29.41;39.38;100965.48;103541;1285;61326;-81
2023/08/18 04:38:45;;;;;;;6.30;4.00;;;;;;;29.40;39.18;100965.91;103462;1285;61779;-81
2023/08/18 04:41:11;;;;;;;6.50;4.00;;;;;;;29.39;39.03;100964.02;103558;1284;61949;-81
2023/08/18 04:43:37;;;;;;;6.10;4.30;;;;;;;29.37;39.21;100965.60;103517;1285;61854;-81
2023/08/18 04:46:03;;;;;;;5.80;4.20;;;;;;;29.38;38.83;100968.69;103370;1284;61388;-81
2023/08/18 04:48:29;;;;;;;7.30;4.10;;;;;;;29.37;38.84;100971.98;103510;1287;61946;-81
2023/08/18 04:50:55;;;;;;;5.30;4.10;;;;;;;29.37;38.94;100968.36;103589;1285;63783;-81
2023/08/18 04:53:20;;;;;;;5.80;4.40;;;;;;;29.37;38.65;100963.64;103542;1289;61390;-81
2023/08/18 04:55:46;;;;;;;8.60;4.20;;;;;;;29.37;38.61;100964.01;103300;1287;61444;-81
2023/08/18 04:58:15;;;;;;;6.70;4.00;;;;;;;29.37;38.94;100960.98;103578;1287;61434;-80
2023/08/18 05:00:41;;;;;;;7.60;4.50;;;;;;;29.37;38.65;100960.27;103522;1285;63996;-80
2023/08/18 05:03:07;;;;;;;6.60;4.00;;;;;;;29.37;38.65;100964.58;103446;1290;61407;-80
2023/08/18 05:05:38;;;;;;;8.30;4.00;;;;;;;29.37;38.58;100964.41;103515;1285;61391;-80
2023/08/18 05:08:05;;;;;;;8.10;4.20;;;;;;;29.37;38.50;100968.19;103575;1289;61320;-80
2023/08/18 05:10:30;;;;;;;6.10;4.20;;;;;;;29.37;38.46;100963.36;103537;1285;62800;-80
2023/08/18 05:12:56;;;;;;;6.10;4.20;;;;;;;29.36;38.52;100965.94;103735;1285;61318;-80
2023/08/18 05:15:22;;;;;;;7.90;4.50;;;;;;;29.36;38.49;100966.30;103675;1290;62155;-80
2023/08/18 05:17:51;;;;;;;7.70;4.60;;;;;;;29.36;38.28;100964.54;103731;1284;61311;-81
2023/08/18 05:20:16;;;;;;;;;;;;;;;29.35;38.22;100964.02;103731;1288;61354;-80
2023/08/18 05:22:42;;;;;;;9.70;4.40;;;;;;;29.33;38.34;100963.54;103519;1285;61501;-80
2023/08/18 05:25:08;;;;;;;8.00;4.40;;;;;;;29.34;38.31;100960.00;103569;1284;61408;-80
2023/08/18 05:27:34;;;;;;;8.80;4.80;;;;;;;29.34;38.31;100962.86;103594;1285;61484;-80
2023/08/18 05:30:00;;;;;;;6.00;4.60;;;;;;;29.35;38.19;100966.98;103595;1286;61382;-81
2023/08/18 05:32:26;;;;;;;7.30;4.80;;;;;;;29.35;38.23;100968.74;103588;1285;61398;-80
2023/08/18 05:34:55;;;;;;;9.20;4.90;;;;;;;29.36;38.23;100967.08;103525;1290;61400;-80
2023/08/18 05:37:22;;;;;;;8.80;4.60;;;;;;;29.36;38.12;100969.23;104001;1285;61380;-82
2023/08/18 05:39:47;;;;;;;8.60;4.80;;;;;;;29.36;38.20;100965.96;104112;1285;61291;-80
2023/08/18 05:42:13;;;;;;;10.00;5.40;;;;;;;29.37;37.95;100963.13;103905;1289;61808;-80
2023/08/18 05:44:38;;;;;;;11.20;4.40;;;;;;;29.38;38.02;100965.00;103498;1290;61447;-81
2023/08/18 05:47:04;;;;;;;12.70;4.60;;;;;;;29.38;38.06;100965.53;103639;1289;61496;-80
2023/08/18 05:49:31;;;;;;;6.80;4.50;;;;;;;29.39;38.00;100965.64;103559;1284;61350;-80
2023/08/18 05:51:57;;;;;;;10.30;5.40;;;;;;;29.40;37.91;100966.64;103540;1285;61415;-80
2023/08/18 05:54:22;;;;;;;8.50;4.50;;;;;;;29.40;38.11;100969.66;103582;1285;61421;-80
2023/08/18 05:56:48;;;;;;;7.00;4.80;;;;;;;29.41;38.05;100968.68;103534;1284;59459;-80
2023/08/18 05:59:14;;;;;;;8.00;4.30;;;;;;;29.41;38.14;100967.73;103574;1285;62342;-80
2023/08/18 06:01:40;;;;;;;7.10;4.70;;;;;;;29.42;38.06;100969.17;103532;1285;61381;-80
2023/08/18 06:04:06;;;;;;;10.80;4.60;;;;;;;29.42;38.13;100969.10;103629;1285;61392;-81
2023/08/18 06:06:33;;;;;;;7.20;4.60;;;;;;;29.44;38.08;100966.63;103842;1290;61476;-80
2023/08/18 06:09:01;;;;;;;6.90;4.30;;;;;;;29.43;38.10;100971.55;103757;1285;61399;-80
2023/08/18 06:11:27;;;;;;;7.40;4.90;;;;;;;29.44;38.10;100969.61;103652;1288;61368;-81
2023/08/18 06:13:53;;;;;;;8.60;4.40;;;;;;;29.45;38.15;100969.35;103701;1284;61334;-81
2023/08/18 06:16:18;;;;;;;8.30;4.40;;;;;;;29.46;38.04;100970.20;104346;1285;61481;-81
2023/08/18 06:18:44;;;;;;;7.00;4.50;;;;;;;29.47;37.91;100974.23;104101;1289;61903;-82
2023/08/18 06:21:10;;;;;;;7.60;4.60;;;;;;;29.48;37.91;100974.30;104143;1285;61852;-81
2023/08/18 06:23:36;;;;;;;8.50;5.10;;;;;;;29.49;38.07;100978.69;103825;1289;61301;-81
2023/08/18 06:26:01;;;;;;;8.10;4.80;;;;;;;29.50;38.11;100980.77;103698;1284;63832;-80
2023/08/18 06:28:27;;;;;;;7.20;4.70;;;;;;;29.51;37.95;100979.98;103594;1285;61372;-80
2023/08/18 06:30:52;;;;;;;8.00;4.80;;;;;;;29.53;37.92;100979.83;103729;1285;61412;-81
2023/08/18 06:33:18;;;;;;;9.60;4.50;;;;;;;29.53;38.00;100976.33;103715;1285;61404;-81
2023/08/18 06:35:47;;;;;;;8.90;4.80;;;;;;;29.54;37.97;100981.81;103804;1285;61406;-81
2023/08/18 06:38:12;;;;;;;6.10;4.90;;;;;;;29.55;37.86;100978.48;103741;1285;61379;-81
2023/08/18 06:40:38;;;;;;;6.90;4.60;;;;;;;29.56;38.07;100978.55;103665;1290;309114;-81
2023/08/18 06:43:04;;;;;;;6.80;4.70;;;;;;;29.57;38.01;100978.98;103913;1284;61781;-81
2023/08/18 06:45:29;;;;;;;6.80;4.60;;;;;;;29.58;37.96;100979.11;104108;1284;61323;-82
2023/08/18 06:47:55;;;;;;;6.60;4.80;;;;;;;29.59;37.77;100979.55;103725;1285;63737;-81
2023/08/18 06:50:21;;;;;;;6.70;4.80;;;;;;;29.59;37.93;100982.35;103843;1288;62972;-81
2023/08/18 06:52:47;;;;;;;7.70;5.10;;;;;;;29.60;37.90;100982.66;103846;1284;61418;-81
2023/08/18 06:55:14;;;;;;;8.10;4.70;;;;;;;29.61;37.96;100984.63;103763;1285;61448;-81
2023/08/18 06:57:41;;;;;;;6.90;4.90;;;;;;;29.62;37.72;100983.78;104058;1289;61930;-80
2023/08/18 07:00:09;;;;;;;7.00;4.60;;;;;;;29.62;37.65;100980.66;103579;1293;62326;-81
2023/08/18 07:02:35;;;;;;;8.50;4.90;;;;;;;29.63;37.84;100986.20;103907;1287;61382;-81
2023/08/18 07:05:01;;;;;;;6.00;5.20;;;;;;;29.63;37.76;100985.80;103685;1284;61679;-81
2023/08/18 07:07:26;;;;;;;6.80;5.10;;;;;;;29.64;37.80;100986.96;103873;1288;61526;-81
2023/08/18 07:09:52;;;;;;;7.10;5.10;;;;;;;29.65;37.81;100988.19;103786;1285;62384;-81
2023/08/18 07:12:18;;;;;;;7.10;4.80;;;;;;;29.65;37.69;100987.64;104181;1286;61316;-81
2023/08/18 07:14:44;;;;;;;7.60;4.70;;;;;;;29.65;37.84;100985.77;104072;1289;61488;-81
2023/08/18 07:17:10;;;;;;;5.70;4.30;;;;;;;29.66;37.87;100987.00;103740;1284;61294;-80
2023/08/18 07:19:35;;;;;;;7.00;4.60;;;;;;;29.67;37.58;100987.07;103910;1286;61366;-81
2023/08/18 07:22:03;;;;;;;6.10;4.70;;;;;;;29.67;37.77;100986.80;103706;1288;61444;-81
2023/08/18 07:24:29;;;;;;;6.60;4.90;;;;;;;29.68;37.69;100986.95;104093;1287;64027;-81
2023/08/18 07:26:55;;;;;;;6.30;4.80;;;;;;;29.68;37.67;100982.59;103686;1286;61397;-81
2023/08/18 07:29:21;;;;;;;6.50;4.60;;;;;;;29.69;37.58;100982.12;103845;1287;61398;-81
2023/08/18 07:31:47;;;;;;;5.90;4.70;;;;;;;29.69;37.61;100982.30;103571;1286;61827;-80
2023/08/18 07:34:12;;;;;;;9.40;5.50;;;;;;;29.69;37.65;100975.70;103795;1286;61978;-81
2023/08/18 07:36:39;;;;;;;6.80;5.30;;;;;;;29.70;37.56;100978.52;103777;1289;61312;-81
2023/08/18 07:39:06;;;;;;;7.20;4.60;;;;;;;29.70;37.47;100980.70;103818;1285;61299;-80
2023/08/18 07:41:32;;;;;;;7.10;4.90;;;;;;;29.70;37.49;100982.02;103909;1284;63865;-81
2023/08/18 07:43:57;;;;;;;6.90;4.60;;;;;;;29.70;37.48;100984.34;103783;1284;62030;-81
2023/08/18 07:46:23;;;;;;;7.90;4.40;;;;;;;29.70;37.31;100983.94;103525;1285;61458;-80
2023/08/18 07:48:49;;;;;;;6.60;4.60;;;;;;;29.70;37.47;100979.78;103403;1284;62312;-81
2023/08/18 07:51:17;;;;;;;7.10;5.50;;;;;;;29.71;37.43;100981.73;103669;1285;61420;-81
2023/08/18 07:53:42;;;;;;;7.10;5.00;;;;;;;29.71;37.43;100983.35;103665;1284;61454;-81
2023/08/18 07:56:08;;;;;;;6.70;5.00;;;;;;;29.71;37.41;100979.51;103622;1290;61404;-81
2023/08/18 07:58:34;;;;;;;6.70;5.10;;;;;;;29.71;37.41;100980.98;103582;1285;61423;-81
2023/08/18 08:00:59;;;;;;;5.90;4.60;;;;;;;29.71;37.47;100978.02;103328;1287;61958;-80
2023/08/18 08:03:25;;;;;;;7.00;5.20;;;;;;;29.72;37.38;100978.52;103334;1284;61413;-80
2023/08/18 08:05:50;;;;;;;7.60;4.90;;;;;;;29.72;37.35;100978.32;103531;1284;61342;-81
2023/08/18 08:08:16;;;;;;;7.30;4.80;;;;;;;29.72;37.23;100981.79;103529;1285;62977;-81
2023/08/18 08:10:41;;;;;;;7.20;4.60;;;;;;;29.71;37.16;100983.09;103593;1284;61939;-80
2023/08/18 08:13:07;;;;;;;12.70;5.00;;;;;;;29.72;37.28;100981.96;103581;1284;61385;-80
2023/08/18 08:15:33;;;;;;;8.50;5.30;;;;;;;29.71;37.15;100984.20;103486;1285;62030;-80
2023/08/18 08:17:58;;;;;;;10.00;5.00;;;;;;;29.72;36.87;100986.87;103632;1285;61376;-81
2023/08/18 08:20:24;;;;;;;10.70;5.40;;;;;;;29.72;36.93;100984.67;103802;1287;61430;-81
2023/08/18 08:22:52;;;;;;;10.40;5.10;;;;;;;29.72;36.96;100982.48;103734;1284;61623;-81
2023/08/18 08:25:18;;;;;;;11.40;5.00;;;;;;;29.72;36.99;100974.52;103691;1284;61402;-81
2023/08/18 08:27:52;;;;;;;10.90;5.30;;;;;;;29.72;36.79;100978.70;103820;1284;63939;-81
2023/08/18 08:30:18;;;;;;;9.70;4.90;;;;;;;29.72;36.70;100977.58;103843;1284;65534;-81
2023/08/18 08:32:44;;;;;;;7.90;4.80;;;;;;;29.72;36.82;100980.65;103814;1285;61395;-81
2023/08/18 08:35:09;;;;;;;7.00;4.70;;;;;;;29.72;36.79;100975.02;103809;1284;61384;-82
2023/08/18 08:37:35;;;;;;;9.50;4.90;;;;;;;29.73;36.77;100982.91;103637;1285;61593;-81
2023/08/18 08:40:00;;;;;;;7.70;4.90;;;;;;;29.74;36.62;100986.50;104048;1284;61377;-83
2023/08/18 08:42:26;;;;;;;6.50;4.70;;;;;;;29.74;36.73;100987.02;104245;1285;65585;-82
2023/08/18 08:44:51;;;;;;;10.30;5.00;;;;;;;29.74;36.79;100981.67;103866;1287;61474;-82
2023/08/18 08:47:17;;;;;;;6.60;5.00;;;;;;;29.75;36.90;100978.17;103962;1284;61267;-82
2023/08/18 08:49:43;;;;;;;7.80;4.90;;;;;;;29.75;36.92;100986.84;103968;1288;62436;-82
2023/08/18 08:52:16;;;;;;;8.50;4.90;;;;;;;29.76;36.95;100990.77;103849;1287;61376;-82
2023/08/18 08:54:46;;;;;;;6.90;4.80;;;;;;;29.76;36.84;100992.36;103672;1286;61338;-82
2023/08/18 08:57:13;;;;;;;7.10;5.00;;;;;;;29.77;36.90;100988.89;103782;1286;62397;-83
2023/08/18 08:59:39;;;;;;;7.80;4.80;;;;;;;29.77;36.83;100987.02;103923;1287;63801;-82
2023/08/18 09:02:04;;;;;;;8.20;5.50;;;;;;;29.78;36.90;100991.71;104010;1286;61407;-82
2023/08/18 09:04:30;;;;;;;6.00;4.70;;;;;;;29.78;36.88;100984.23;103871;1287;61491;-82
2023/08/18 09:06:56;;;;;;;6.40;4.90;;;;;;;29.79;36.93;100971.11;104085;1287;61381;-83
2023/08/18 09:09:22;;;;;;;6.70;5.10;;;;;;;29.79;37.04;100968.77;104138;1286;59399;-83
2023/08/18 09:11:47;;;;;;;7.00;5.10;;;;;;;29.79;36.89;100983.05;104253;1287;61362;-83
2023/08/18 09:14:16;;;;;;;6.80;5.00;;;;;;;29.79;37.06;100984.45;104411;1286;65684;-83
2023/08/18 09:16:44;;;;;;;;;;;;;;;29.80;36.99;100988.03;104464;1284;61332;-83
2023/08/18 09:19:13;;;;;;;6.40;4.50;;;;;;;29.78;37.14;100988.73;104749;1285;62346;-81
2023/08/18 09:21:39;;;;;;;6.70;5.00;;;;;;;29.79;37.10;100993.52;104013;1284;63898;-82
2023/08/18 09:24:05;;;;;;;6.70;4.90;;;;;;;29.80;37.01;100984.15;103881;1287;62964;-83
2023/08/18 09:26:31;;;;;;;7.30;5.10;;;;;;;29.81;37.02;100989.13;103895;1286;61360;-82
2023/08/18 09:28:56;;;;;;;6.10;5.10;;;;;;;29.82;37.10;100992.86;103874;1284;61404;-82
2023/08/18 09:31:22;;;;;;;6.00;5.00;;;;;;;29.82;36.99;100998.65;104013;1284;61373;-83
2023/08/18 09:33:47;;;;;;;8.30;4.90;;;;;;;29.82;37.02;101002.83;104006;1285;61471;-83
2023/08/18 09:36:13;;;;;;;7.20;5.00;;;;;;;29.82;37.19;100991.23;104332;1284;65614;-82
2023/08/18 09:38:40;;;;;;;6.30;4.90;;;;;;;29.82;37.20;100992.11;104242;1284;61386;-82
2023/08/18 09:41:09;;;;;;;7.30;4.80;;;;;;;29.83;37.00;100996.60;104167;1290;61427;-82
2023/08/18 09:43:36;;;;;;;6.20;5.00;;;;;;;29.83;37.02;100996.36;103998;1284;63866;-82
2023/08/18 09:46:05;;;;;;;8.20;5.60;;;;;;;29.83;37.00;100996.40;104197;1284;61362;-82
2023/08/18 09:48:35;;;;;;;7.20;5.00;;;;;;;29.83;36.95;100991.30;104227;1290;61265;-82
2023/08/18 09:51:01;;;;;;;6.10;4.70;;;;;;;29.84;37.03;100994.67;104173;1287;61367;-82
2023/08/18 09:53:31;;;;;;;9.00;5.20;;;;;;;29.84;37.12;100992.67;103693;1284;61401;-82
2023/08/18 09:55:59;;;;;;;8.00;5.30;;;;;;;29.84;37.01;100985.57;103916;1288;66034;-82
2023/08/18 09:58:32;;;;;;;7.20;5.30;;;;;;;29.84;36.90;100983.04;103784;1284;61267;-82
2023/08/18 10:01:05;;;;;;;8.30;5.40;;;;;;;29.84;36.96;100986.48;104242;1285;61242;-82
2023/08/18 10:03:31;;;;;;;6.90;5.00;;;;;;;29.84;36.89;100977.77;104094;1285;63784;-82
2023/08/18 10:05:58;;;;;;;7.70;5.50;;;;;;;29.84;36.96;100978.11;104207;1285;65988;-82
2023/08/18 10:08:24;;;;;;;6.20;4.80;;;;;;;29.84;37.07;100969.61;103946;1285;61447;-82
2023/08/18 10:10:50;;;;;;;7.10;4.90;;;;;;;29.84;37.01;100969.94;103912;1285;61408;-82
2023/08/18 10:13:15;;;;;;;6.60;5.20;;;;;;;29.84;37.02;100975.12;104160;1287;61327;-83
2023/08/18 10:15:41;;;;;;;7.60;5.30;;;;;;;29.85;37.06;100974.64;103936;1285;61354;-82
2023/08/18 10:18:11;;;;;;;6.60;5.10;;;;;;;29.84;37.05;100972.31;103847;1290;61478;-81
2023/08/18 10:20:50;;;;;;;6.20;5.10;;;;;;;29.84;37.03;100972.94;103703;1285;61263;-81
2023/08/18 10:23:19;;;;;;;7.10;5.30;;;;;;;29.84;37.15;100975.63;103907;1288;61299;-81
2023/08/18 10:25:45;;;;;;;6.80;5.00;;;;;;;29.84;37.03;100974.19;103915;1284;63873;-83
2023/08/18 10:28:15;;;;;;;7.10;5.10;;;;;;;29.83;37.01;100971.88;103983;1284;61420;-81
2023/08/18 10:30:40;;;;;;;7.50;5.30;;;;;;;29.84;36.87;100970.41;103831;1293;61415;-81
2023/08/18 10:33:08;;;;;;;7.40;5.00;;;;;;;29.83;36.91;100974.04;103674;1285;61258;-81
2023/08/18 10:35:41;;;;;;;7.20;5.20;;;;;;;29.83;37.06;100969.06;103723;1284;63839;-81
2023/08/18 10:38:07;;;;;;;6.00;5.00;;;;;;;29.82;36.86;100971.80;104000;1284;65870;-82
2023/08/18 10:40:37;;;;;;;7.40;5.30;;;;;;;29.82;36.97;100965.08;103785;1285;61468;-82
2023/08/18 10:43:12;;;;;;;6.50;5.20;;;;;;;29.83;36.97;100961.77;103649;1284;62397;-82
2023/08/18 10:45:41;;;;;;;5.70;4.70;;;;;;;29.82;36.90;100965.31;103627;1284;63906;-82
2023/08/18 10:48:06;;;;;;;8.20;5.60;;;;;;;29.82;36.97;100961.84;103693;1285;65864;-82
2023/08/18 10:50:35;;;;;;;7.20;5.40;;;;;;;29.82;36.97;100959.88;103753;1284;61344;-81
2023/08/18 10:53:03;;;;;;;;;;;;;;;29.82;36.83;100963.50;103723;1284;62375;-81
2023/08/18 10:55:30;;;;;;;7.30;5.30;;;;;;;29.80;36.94;100968.83;103758;1292;63815;-82
2023/08/18 10:57:55;;;;;;;6.00;5.40;;;;;;;29.80;36.81;100953.77;103651;1284;65756;-81
2023/08/18 11:00:21;;;;;;;7.00;5.00;;;;;;;29.80;36.91;100948.30;103699;1284;61365;-81
2023/08/18 11:02:49;;;;;;;6.00;4.80;;;;;;;29.80;36.83;100947.38;103673;1285;61454;-81
2023/08/18 11:05:21;;;;;;;6.80;5.30;;;;;;;29.79;36.84;100947.65;103714;1285;61351;-82
2023/08/18 11:07:47;;;;;;;7.50;5.40;;;;;;;29.80;36.77;100952.11;103841;1285;66219;-81
2023/08/18 11:10:18;;;;;;;7.70;5.30;;;;;;;29.80;36.85;100951.73;104225;1284;61368;-81
2023/08/18 11:12:44;;;;;;;6.60;5.00;;;;;;;29.80;36.88;100953.49;103857;1284;61285;-81